createdAt,value
2022-12-09T00:01:21.103Z,14.40
2022-12-09T00:04:06.421Z,14.90
2022-12-09T00:06:52.144Z,14.57
2022-12-09T00:09:37.806Z,15.05
2022-12-09T00:12:23.252Z,14.23
2022-12-09T00:15:09.009Z,15.52
2022-12-09T00:17:54.786Z,14.95
2022-12-09T00:20:39.864Z,15.35
2022-12-09T00:23:25.416Z,15.73
2022-12-09T00:26:11.673Z,15.45
2022-12-09T00:28:56.851Z,16.02
2022-12-09T00:31:42.577Z,15.55
2022-12-09T00:34:29.442Z,15.80
2022-12-09T00:37:14.485Z,15.50
2022-12-09T00:40:00.426Z,15.05
2022-12-09T00:42:46.176Z,15.68
2022-12-09T00:45:31.659Z,16.20
2022-12-09T00:48:16.711Z,16.10
2022-12-09T00:51:03.200Z,17.17
2022-12-09T00:53:50.101Z,17.52
2022-12-09T00:56:35.323Z,17.02
2022-12-09T00:59:20.620Z,16.85
2022-12-09T01:02:06.367Z,17.13
2022-12-09T01:04:52.370Z,17.85
2022-12-09T01:07:37.840Z,17.98
2022-12-09T01:10:23.303Z,17.50
2022-12-09T01:13:09.053Z,18.08
2022-12-09T01:15:54.741Z,17.55
2022-12-09T01:18:40.247Z,17.83
2022-12-09T01:21:27.315Z,19.25
2022-12-09T01:24:14.715Z,19.60
2022-12-09T01:27:00.298Z,20.25
2022-12-09T01:29:45.994Z,20.33
2022-12-09T01:32:31.841Z,18.73
2022-12-09T01:35:18.303Z,17.77
2022-12-09T01:38:04.008Z,18.05
2022-12-09T01:40:49.438Z,18.80
2022-12-09T01:43:35.009Z,17.58
2022-12-09T01:46:20.352Z,16.95
2022-12-09T01:49:09.287Z,18.15
2022-12-09T01:52:22.644Z,17.30
2022-12-09T01:55:08.616Z,16.42
2022-12-09T01:57:55.074Z,18.48
2022-12-09T02:00:41.273Z,17.85
2022-12-09T02:03:27.123Z,18.08
2022-12-09T02:06:12.757Z,17.33
2022-12-09T02:08:59.050Z,16.90
2022-12-09T02:11:59.175Z,17.73
2022-12-09T02:15:08.198Z,18.38
2022-12-09T02:18:19.825Z,17.65
2022-12-09T02:21:12.551Z,16.80
2022-12-09T02:24:11.633Z,16.42
2022-12-09T02:27:17.073Z,16.20
2022-12-09T02:30:15.775Z,16.02
2022-12-09T02:33:26.579Z,16.30
2022-12-09T02:36:16.769Z,15.13
2022-12-09T02:39:03.547Z,15.73
2022-12-09T02:41:52.801Z,14.70
2022-12-09T02:44:39.490Z,15.50
2022-12-09T02:47:29.790Z,14.07
2022-12-09T02:50:19.573Z,16.02
2022-12-09T02:53:10.458Z,15.07
2022-12-09T02:55:58.433Z,15.45
2022-12-09T02:58:43.842Z,15.23
2022-12-09T03:01:49.990Z,15.25
2022-12-09T03:04:40.712Z,14.60
2022-12-09T03:07:55.881Z,15.15
2022-12-09T03:11:07.573Z,14.95
2022-12-09T03:14:15.834Z,14.38
2022-12-09T03:17:05.590Z,14.88
2022-12-09T03:19:55.435Z,14.68
2022-12-09T03:22:43.353Z,15.27
2022-12-09T03:25:38.426Z,15.55
2022-12-09T03:28:29.142Z,15.95
2022-12-09T03:31:19.866Z,14.60
2022-12-09T03:34:07.783Z,14.13
2022-12-09T03:36:54.690Z,13.75
2022-12-09T03:39:41.021Z,15.00
2022-12-09T03:42:37.732Z,14.80
2022-12-09T03:45:24.875Z,15.48
2022-12-09T03:48:11.564Z,14.55
2022-12-09T03:51:04.140Z,14.48
2022-12-09T03:54:04.690Z,14.35
2022-12-09T03:56:55.557Z,13.95
2022-12-09T03:59:42.553Z,14.43
2022-12-09T04:02:29.330Z,14.15
2022-12-09T04:05:15.574Z,14.90
2022-12-09T04:08:01.366Z,14.50
2022-12-09T04:10:47.031Z,14.25
2022-12-09T04:13:32.705Z,14.63
2022-12-09T04:16:18.601Z,14.32
2022-12-09T04:19:04.379Z,14.82
2022-12-09T04:21:50.036Z,15.48
2022-12-09T04:24:35.549Z,15.40
2022-12-09T04:27:20.644Z,15.10
2022-12-09T04:30:07.280Z,14.63
2022-12-09T04:32:53.215Z,13.98
2022-12-09T04:35:39.224Z,13.02
2022-12-09T04:38:24.547Z,13.05
2022-12-09T04:41:10.476Z,12.32
2022-12-09T04:43:56.043Z,12.32
2022-12-09T04:46:41.471Z,11.77
2022-12-09T04:49:27.017Z,12.73
2022-12-09T04:52:12.540Z,11.90
2022-12-09T04:54:57.745Z,12.02
2022-12-09T04:57:43.054Z,11.73
2022-12-09T05:00:28.558Z,11.73
2022-12-09T05:03:14.194Z,11.25
2022-12-09T05:05:59.972Z,11.57
2022-12-09T05:08:46.008Z,11.27
2022-12-09T05:11:31.515Z,11.52
2022-12-09T05:14:17.511Z,10.88
2022-12-09T05:17:03.818Z,10.75
2022-12-09T05:19:49.178Z,11.30
2022-12-09T05:22:34.702Z,10.70
2022-12-09T05:25:20.414Z,10.77
2022-12-09T05:28:05.909Z,10.38
2022-12-09T05:30:51.785Z,9.88
2022-12-09T05:33:37.765Z,10.75
2022-12-09T05:36:25.376Z,10.80
2022-12-09T05:39:11.600Z,10.02
2022-12-09T05:41:57.654Z,11.02
2022-12-09T05:44:43.420Z,9.95
2022-12-09T05:47:29.324Z,9.90
2022-12-09T05:50:16.384Z,10.25
2022-12-09T05:53:02.716Z,9.93
2022-12-09T05:55:48.206Z,10.63
2022-12-09T05:58:34.351Z,10.35
2022-12-09T06:01:21.397Z,10.90
2022-12-09T06:04:06.811Z,10.65
2022-12-09T06:06:52.625Z,11.93
2022-12-09T06:09:38.193Z,11.43
2022-12-09T06:12:23.929Z,11.73
2022-12-09T06:15:10.930Z,11.23
2022-12-09T06:17:58.133Z,11.27
2022-12-09T06:20:43.815Z,11.68
2022-12-09T06:23:29.332Z,12.52
2022-12-09T06:26:20.918Z,12.95
2022-12-09T06:29:07.072Z,12.23
2022-12-09T06:31:52.391Z,13.30
2022-12-09T06:34:38.003Z,13.45
2022-12-09T06:37:23.597Z,12.52
2022-12-09T06:40:09.397Z,12.40
2022-12-09T06:42:54.873Z,13.05
2022-12-09T06:45:40.128Z,11.90
2022-12-09T06:48:25.767Z,12.38
2022-12-09T06:51:11.271Z,12.90
2022-12-09T06:53:56.694Z,12.50
2022-12-09T06:56:42.085Z,13.65
2022-12-09T06:59:28.141Z,13.45
2022-12-09T07:02:13.726Z,12.77
2022-12-09T07:04:59.829Z,12.85
2022-12-09T07:07:49.950Z,13.75
2022-12-09T07:10:36.889Z,13.38
2022-12-09T07:13:22.336Z,13.55
2022-12-09T07:16:07.940Z,12.95
2022-12-09T07:18:54.566Z,13.95
2022-12-09T07:21:40.084Z,13.07
2022-12-09T07:24:26.068Z,12.10
2022-12-09T07:27:19.221Z,13.52
2022-12-09T07:30:06.342Z,13.43
2022-12-09T07:32:51.654Z,14.38
2022-12-09T07:35:37.092Z,14.60
2022-12-09T07:38:23.716Z,14.25
2022-12-09T07:41:17.605Z,14.35
2022-12-09T07:44:03.435Z,14.57
2022-12-09T07:46:49.400Z,14.80
2022-12-09T07:49:35.000Z,14.98
2022-12-09T07:52:20.491Z,15.73
2022-12-09T07:55:07.066Z,15.85
2022-12-09T07:57:53.372Z,14.35
2022-12-09T08:00:39.723Z,14.88
2022-12-09T08:03:25.622Z,14.85
2022-12-09T08:06:17.227Z,13.85
2022-12-09T08:09:05.377Z,14.25
2022-12-09T08:11:51.712Z,15.23
2022-12-09T08:14:37.452Z,14.73
2022-12-09T08:17:23.181Z,14.63
2022-12-09T08:20:10.205Z,15.27
2022-12-09T08:22:55.687Z,15.50
2022-12-09T08:25:41.162Z,15.63
2022-12-09T08:28:29.086Z,15.65
2022-12-09T08:31:17.132Z,15.90
2022-12-09T08:34:04.982Z,15.10
2022-12-09T08:36:51.322Z,15.60
2022-12-09T08:39:38.180Z,15.50
2022-12-09T08:42:23.644Z,15.93
2022-12-09T08:45:09.321Z,15.23
2022-12-09T08:47:54.885Z,15.38
2022-12-09T08:50:40.300Z,15.73
2022-12-09T08:53:25.865Z,14.88
2022-12-09T08:56:13.168Z,15.13
2022-12-09T08:58:59.653Z,15.32
2022-12-09T09:01:45.688Z,14.13
2022-12-09T09:04:31.968Z,14.88
2022-12-09T09:07:18.416Z,16.25
2022-12-09T09:10:04.380Z,19.85
2022-12-09T09:12:50.024Z,20.23
2022-12-09T09:15:35.310Z,19.23
2022-12-09T09:18:21.430Z,20.33
2022-12-09T09:21:09.143Z,19.30
2022-12-09T09:23:54.995Z,18.38
2022-12-09T09:26:42.554Z,19.20
2022-12-09T09:29:28.285Z,18.15
2022-12-09T09:32:14.138Z,18.65
2022-12-09T09:34:59.641Z,18.23
2022-12-09T09:37:45.374Z,18.65
2022-12-09T09:40:33.302Z,18.63
2022-12-09T09:43:22.896Z,19.20
2022-12-09T09:46:16.236Z,17.73
2022-12-09T09:49:05.837Z,17.67
2022-12-09T09:51:51.315Z,18.08
2022-12-09T09:54:37.325Z,17.83
2022-12-09T09:57:46.431Z,17.73
2022-12-09T10:00:44.362Z,17.38
2022-12-09T10:03:33.713Z,17.13
2022-12-09T10:06:49.845Z,18.70
2022-12-09T10:09:56.689Z,19.08
2022-12-09T10:13:10.833Z,17.00
2022-12-09T10:16:24.005Z,16.60
2022-12-09T10:19:19.761Z,16.67
2022-12-09T10:22:19.680Z,18.92
2022-12-09T10:25:17.187Z,18.40
2022-12-09T10:28:23.011Z,19.50
2022-12-09T10:31:11.264Z,19.75
2022-12-09T10:33:57.674Z,18.45
2022-12-09T10:36:46.135Z,18.00
2022-12-09T10:39:34.248Z,18.00
2022-12-09T10:42:39.122Z,17.63
2022-12-09T10:45:29.149Z,17.90
2022-12-09T10:48:43.045Z,17.20
2022-12-09T10:51:32.016Z,16.40
2022-12-09T10:54:47.690Z,16.65
2022-12-09T10:57:33.386Z,16.65
2022-12-09T11:00:19.046Z,16.55
2022-12-09T11:03:04.526Z,17.55
2022-12-09T11:06:00.943Z,16.55
2022-12-09T11:08:57.716Z,17.15
2022-12-09T11:11:48.828Z,17.65
2022-12-09T11:14:36.766Z,16.73
2022-12-09T11:17:26.033Z,16.30
2022-12-09T11:20:22.548Z,17.13
2022-12-09T11:23:18.204Z,18.50
2022-12-09T11:26:26.511Z,18.70
2022-12-09T11:29:19.338Z,20.60
2022-12-09T11:32:04.987Z,20.17
2022-12-09T11:34:51.091Z,19.17
2022-12-09T11:37:39.408Z,20.40
2022-12-09T11:40:28.535Z,21.95
2022-12-09T11:43:14.291Z,21.23
2022-12-09T11:45:59.898Z,19.60
2022-12-09T11:48:50.443Z,21.00
2022-12-09T11:51:43.520Z,21.73
2022-12-09T11:57:55.438Z,20.92
2022-12-09T12:00:49.134Z,20.77
2022-12-09T12:03:44.739Z,21.33
2022-12-09T12:06:51.612Z,20.20
2022-12-09T12:09:57.759Z,20.30
2022-12-09T12:13:21.327Z,19.77
2022-12-09T12:16:18.469Z,20.65
2022-12-09T12:19:12.278Z,20.27
2022-12-09T12:22:19.948Z,19.77
2022-12-09T12:25:27.752Z,19.90
2022-12-09T12:29:01.294Z,20.58
2022-12-09T12:32:24.592Z,19.50
2022-12-09T12:35:31.660Z,19.85
2022-12-09T12:38:35.530Z,20.90
2022-12-09T12:41:45.877Z,22.08
2022-12-09T12:44:56.066Z,22.27
2022-12-09T12:48:07.105Z,21.85
2022-12-09T12:51:21.169Z,21.98
2022-12-09T12:54:49.187Z,20.63
2022-12-09T12:57:57.594Z,20.60
2022-12-09T13:01:15.578Z,22.67
2022-12-09T13:04:22.862Z,20.42
2022-12-09T13:07:27.812Z,20.45
2022-12-09T13:10:22.644Z,21.73
2022-12-09T13:13:20.995Z,23.02
2022-12-09T13:16:16.507Z,21.45
2022-12-09T13:19:16.901Z,20.95
2022-12-09T13:22:03.809Z,19.75
2022-12-09T13:25:14.855Z,19.50
2022-12-09T13:28:09.466Z,18.85
2022-12-09T13:30:58.569Z,19.23
2022-12-09T13:34:09.078Z,20.40
2022-12-09T13:36:54.175Z,18.33
2022-12-09T13:39:39.647Z,18.65
2022-12-09T13:42:47.521Z,18.45
2022-12-09T13:45:43.460Z,18.08
2022-12-09T13:48:29.173Z,18.25
2022-12-09T13:51:15.829Z,18.20
2022-12-09T13:54:06.951Z,17.10
2022-12-09T13:57:23.993Z,16.98
2022-12-09T14:00:17.783Z,16.70
2022-12-09T14:03:27.540Z,18.52
2022-12-09T14:06:46.391Z,17.98
2022-12-09T14:09:47.165Z,17.52
2022-12-09T14:12:32.635Z,18.00
2022-12-09T14:15:24.010Z,16.90
2022-12-09T14:18:29.817Z,17.85
2022-12-09T14:21:17.919Z,16.45
2022-12-09T14:24:09.680Z,17.33
2022-12-09T14:27:12.240Z,18.08
2022-12-09T14:30:23.657Z,16.90
2022-12-09T14:33:38.036Z,15.20
2022-12-09T14:36:30.077Z,16.02
2022-12-09T14:39:25.224Z,16.45
2022-12-09T14:42:32.270Z,19.48
2022-12-09T14:45:32.832Z,20.52
2022-12-09T14:48:33.212Z,19.83
2022-12-09T14:51:24.639Z,19.65
2022-12-09T14:54:24.533Z,20.42
2022-12-09T14:57:38.176Z,20.05
2022-12-09T15:00:37.621Z,20.50
2022-12-09T15:03:33.203Z,19.05
2022-12-09T15:06:21.822Z,19.20
2022-12-09T15:09:12.896Z,18.98
2022-12-09T15:11:58.793Z,19.10
2022-12-09T15:14:44.915Z,19.17
2022-12-09T15:17:36.093Z,18.75
2022-12-09T15:20:30.528Z,19.58
2022-12-09T15:23:21.052Z,17.52
2022-12-09T15:26:22.279Z,18.23
2022-12-09T15:29:20.226Z,16.38
2022-12-09T15:32:26.667Z,16.98
2022-12-09T15:35:23.627Z,18.65
2022-12-09T15:38:10.211Z,18.17
2022-12-09T15:41:30.123Z,17.02
2022-12-09T15:44:19.204Z,18.10
2022-12-09T15:47:10.526Z,17.92
2022-12-09T15:50:04.809Z,17.40
2022-12-09T15:53:03.391Z,18.45
2022-12-09T15:56:13.063Z,17.38
2022-12-09T15:59:06.585Z,18.23
2022-12-09T16:01:54.688Z,18.17
2022-12-09T16:04:47.795Z,17.40
2022-12-09T16:07:33.595Z,18.08
2022-12-09T16:10:18.972Z,18.30
2022-12-09T16:13:13.001Z,18.15
2022-12-09T16:16:00.811Z,17.05
2022-12-09T16:18:51.980Z,17.60
2022-12-09T16:21:37.731Z,17.13
2022-12-09T16:24:23.387Z,16.40
2022-12-09T16:27:08.749Z,15.95
2022-12-09T16:30:09.423Z,16.63
2022-12-09T16:32:57.376Z,16.75
2022-12-09T16:35:45.207Z,15.70
2022-12-09T16:38:35.611Z,16.98
2022-12-09T16:41:45.091Z,15.68
2022-12-09T16:44:34.882Z,16.08
2022-12-09T16:47:24.103Z,15.20
2022-12-09T16:50:10.519Z,16.40
2022-12-09T16:52:56.164Z,15.30
2022-12-09T16:55:53.864Z,14.65
2022-12-09T16:58:38.999Z,15.57
2022-12-09T17:01:29.346Z,16.42
2022-12-09T17:04:26.176Z,14.95
2022-12-09T17:07:11.897Z,15.82
2022-12-09T17:09:57.119Z,15.10
2022-12-09T17:12:46.087Z,15.40
2022-12-09T17:15:31.362Z,15.48
2022-12-09T17:18:16.798Z,14.80
2022-12-09T17:21:05.076Z,15.85
2022-12-09T17:23:50.591Z,14.18
2022-12-09T17:26:35.728Z,14.00
2022-12-09T17:29:21.121Z,14.48
2022-12-09T17:32:06.762Z,13.82
2022-12-09T17:34:54.090Z,13.75
2022-12-09T17:37:39.704Z,14.55
2022-12-09T17:40:25.171Z,14.95
2022-12-09T17:43:11.077Z,14.73
2022-12-09T17:45:59.789Z,14.15
2022-12-09T17:48:45.322Z,15.07
2022-12-09T17:51:35.732Z,14.10
2022-12-09T17:54:21.972Z,15.13
2022-12-09T17:57:07.539Z,14.95
2022-12-09T17:59:52.970Z,17.30
2022-12-09T18:02:38.632Z,16.45
2022-12-09T18:05:23.739Z,15.70
2022-12-09T18:08:09.286Z,15.18
2022-12-09T18:10:54.720Z,15.05
2022-12-09T18:13:40.124Z,15.40
2022-12-09T18:16:25.698Z,16.40
2022-12-09T18:19:16.232Z,14.40
2022-12-09T18:22:02.320Z,14.73
2022-12-09T18:24:47.571Z,13.95
2022-12-09T18:27:33.513Z,14.38
2022-12-09T18:30:18.834Z,15.13
2022-12-09T18:33:04.316Z,15.90
2022-12-09T18:35:50.173Z,14.27
2022-12-09T18:38:35.671Z,15.60
2022-12-09T18:41:24.372Z,15.43
2022-12-09T18:44:10.319Z,15.52
2022-12-09T18:46:56.048Z,15.23
2022-12-09T18:49:41.125Z,15.82
2022-12-09T18:52:26.602Z,16.58
2022-12-09T18:55:12.062Z,15.68
2022-12-09T18:57:57.499Z,17.58
2022-12-09T19:00:42.942Z,15.32
2022-12-09T19:03:28.338Z,17.05
2022-12-09T19:06:37.278Z,16.60
2022-12-09T19:09:25.391Z,17.63
2022-12-09T19:12:45.367Z,17.13
2022-12-09T19:15:16.481Z,18.80
2022-12-09T19:18:01.871Z,18.50
2022-12-09T19:20:48.102Z,19.83
2022-12-09T19:23:35.800Z,19.98
2022-12-09T19:26:24.352Z,23.58
2022-12-09T19:29:10.485Z,23.40
2022-12-09T19:31:57.265Z,22.70
2022-12-09T19:34:42.711Z,21.65
2022-12-09T19:37:28.031Z,22.45
2022-12-09T19:40:13.258Z,22.75
2022-12-09T19:42:58.726Z,21.23
2022-12-09T19:45:44.212Z,21.27
2022-12-09T19:48:29.857Z,20.52
2022-12-09T19:51:17.143Z,22.25
2022-12-09T19:54:02.757Z,24.70
2022-12-09T19:56:48.258Z,22.90
2022-12-09T19:59:33.631Z,24.23
2022-12-09T20:02:18.898Z,24.10
2022-12-09T20:05:05.454Z,23.55
2022-12-09T20:07:51.733Z,25.20
2022-12-09T20:10:43.624Z,25.15
2022-12-09T20:13:31.959Z,26.17
2022-12-09T20:16:22.079Z,24.73
2022-12-09T20:19:07.458Z,23.55
2022-12-09T20:21:53.006Z,23.20
2022-12-09T20:24:38.601Z,22.25
2022-12-09T20:27:25.261Z,21.88
2022-12-09T20:30:11.065Z,21.25
2022-12-09T20:32:56.981Z,22.50
2022-12-09T20:35:42.085Z,24.23
2022-12-09T20:38:27.538Z,25.80
2022-12-09T20:41:14.216Z,28.58
2022-12-09T20:44:00.442Z,28.63
2022-12-09T20:46:51.438Z,28.58
2022-12-09T20:49:36.995Z,29.27
2022-12-09T20:52:22.507Z,30.50
2022-12-09T20:55:08.323Z,28.95
2022-12-09T20:57:53.512Z,29.55
2022-12-09T21:00:39.095Z,28.00
2022-12-09T21:03:24.593Z,28.83
2022-12-09T21:06:10.928Z,27.95
2022-12-09T21:08:59.201Z,26.90
2022-12-09T21:11:45.810Z,25.85
2022-12-09T21:14:33.288Z,24.85
2022-12-09T21:17:19.090Z,24.15
2022-12-09T21:20:04.707Z,23.20
2022-12-09T21:23:10.562Z,25.00
2022-12-09T21:25:55.512Z,24.88
2022-12-09T21:28:42.546Z,23.65
2022-12-09T21:31:31.052Z,26.65
2022-12-09T21:34:17.683Z,24.92
2022-12-09T21:37:03.204Z,26.58
2022-12-09T21:39:48.774Z,28.02
2022-12-09T21:42:34.245Z,26.90
2022-12-09T21:45:19.915Z,28.30
2022-12-09T21:48:05.778Z,28.35
2022-12-09T21:50:55.708Z,29.25
2022-12-09T21:53:41.764Z,26.58
2022-12-09T21:56:33.113Z,25.27
2022-12-09T21:59:18.479Z,23.38
2022-12-09T22:02:04.055Z,25.95
2022-12-09T22:04:49.359Z,25.35
2022-12-09T22:07:35.256Z,23.98
2022-12-09T22:10:20.938Z,23.92
2022-12-09T22:13:06.421Z,23.30
2022-12-09T22:15:51.811Z,22.30
2022-12-09T22:18:37.406Z,22.40
2022-12-09T22:21:25.679Z,24.20
2022-12-09T22:24:13.029Z,24.70
2022-12-09T22:26:58.532Z,25.27
2022-12-09T22:29:43.879Z,22.35
2022-12-09T22:32:30.559Z,23.83
2022-12-09T22:35:15.916Z,24.27
2022-12-09T22:38:05.193Z,23.73
2022-12-09T22:43:39.967Z,24.17
2022-12-09T22:46:29.452Z,25.67
2022-12-09T22:49:15.915Z,24.60
2022-12-09T22:52:01.927Z,25.73
2022-12-09T22:54:47.151Z,25.35
2022-12-09T22:57:32.396Z,25.90
2022-12-09T23:00:17.980Z,27.90
2022-12-09T23:03:03.385Z,29.98
2022-12-09T23:05:49.071Z,30.38
2022-12-09T23:08:34.441Z,27.98
2022-12-09T23:11:25.026Z,25.55
2022-12-09T23:14:10.286Z,25.38
2022-12-09T23:16:57.064Z,27.25
2022-12-09T23:19:42.216Z,28.73
2022-12-09T23:22:27.879Z,27.40
2022-12-09T23:25:13.101Z,26.08
2022-12-09T23:27:58.612Z,27.38
2022-12-09T23:30:44.351Z,27.52
2022-12-09T23:33:29.465Z,28.15
2022-12-09T23:36:24.695Z,25.58
2022-12-09T23:39:13.549Z,26.58
2022-12-09T23:41:59.157Z,26.33
2022-12-09T23:44:44.545Z,27.00
2022-12-09T23:47:30.143Z,26.33
2022-12-09T23:50:15.488Z,26.85
2022-12-09T23:53:01.010Z,27.15
2022-12-09T23:55:46.248Z,27.45
2022-12-09T23:58:31.928Z,26.45
